createdAt,value
2022-10-28T00:02:19.628Z,14.42
2022-10-28T00:04:52.211Z,14.38
2022-10-28T00:07:24.887Z,14.33
2022-10-28T00:09:57.415Z,14.30
2022-10-28T00:12:30.145Z,14.29
2022-10-28T00:15:04.041Z,14.23
2022-10-28T00:17:36.557Z,14.19
2022-10-28T00:20:10.043Z,14.15
2022-10-28T00:22:43.581Z,14.08
2022-10-28T00:25:16.346Z,14.02
2022-10-28T00:27:48.838Z,13.99
2022-10-28T00:30:21.454Z,13.93
2022-10-28T00:32:54.390Z,13.88
2022-10-28T00:35:27.171Z,13.85
2022-10-28T00:37:59.795Z,13.77
2022-10-28T00:40:36.195Z,13.74
2022-10-28T00:43:12.179Z,13.69
2022-10-28T00:45:44.789Z,13.65
2022-10-28T00:48:17.431Z,13.62
2022-10-28T00:50:55.043Z,13.56
2022-10-28T00:53:32.283Z,13.49
2022-10-28T00:56:08.655Z,13.42
2022-10-28T00:58:41.754Z,13.45
2022-10-28T01:01:14.579Z,13.36
2022-10-28T01:03:47.705Z,13.38
2022-10-28T01:06:20.439Z,13.39
2022-10-28T01:08:56.160Z,13.32
2022-10-28T01:12:02.339Z,13.33
2022-10-28T01:14:46.926Z,13.28
2022-10-28T01:18:16.882Z,13.23
2022-10-28T01:21:46.682Z,13.22
2022-10-28T01:25:08.470Z,13.17
2022-10-28T01:28:11.573Z,13.14
2022-10-28T01:31:13.503Z,13.08
2022-10-28T01:34:17.225Z,13.06
2022-10-28T01:37:14.317Z,13.01
2022-10-28T01:39:52.218Z,12.99
2022-10-28T01:42:46.414Z,12.96
2022-10-28T01:45:30.852Z,12.92
2022-10-28T01:48:40.529Z,12.91
2022-10-28T01:51:27.072Z,12.88
2022-10-28T01:54:06.289Z,12.88
2022-10-28T01:56:43.512Z,12.87
2022-10-28T01:59:25.398Z,12.88
2022-10-28T02:01:57.996Z,12.84
2022-10-28T02:04:30.807Z,12.81
2022-10-28T02:07:04.918Z,12.77
2022-10-28T02:10:17.023Z,12.79
2022-10-28T02:12:56.294Z,12.79
2022-10-28T02:15:59.578Z,12.80
2022-10-28T02:19:09.514Z,12.81
2022-10-28T02:22:05.019Z,12.82
2022-10-28T02:25:02.834Z,12.91
2022-10-28T02:27:44.610Z,12.95
2022-10-28T02:30:35.562Z,13.00
2022-10-28T02:33:12.910Z,13.09
2022-10-28T02:35:52.459Z,13.13
2022-10-28T02:38:34.017Z,13.24
2022-10-28T02:41:34.418Z,13.30
2022-10-28T02:44:28.659Z,13.45
2022-10-28T02:47:12.140Z,13.55
2022-10-28T02:49:55.386Z,13.55
2022-10-28T02:52:33.416Z,13.70
2022-10-28T02:55:06.986Z,13.74
2022-10-28T02:57:44.799Z,13.85
2022-10-28T03:00:25.235Z,13.91
2022-10-28T03:02:57.815Z,13.96
2022-10-28T03:05:30.362Z,13.93
2022-10-28T03:08:02.919Z,13.92
2022-10-28T03:10:35.471Z,13.92
2022-10-28T03:13:08.038Z,13.88
2022-10-28T03:15:40.532Z,13.90
2022-10-28T03:18:13.071Z,13.96
2022-10-28T03:20:45.756Z,13.97
2022-10-28T03:23:18.266Z,14.01
2022-10-28T03:25:50.902Z,14.02
2022-10-28T03:28:23.464Z,14.04
2022-10-28T03:30:55.929Z,14.08
2022-10-28T03:33:28.620Z,14.12
2022-10-28T03:36:01.170Z,14.12
2022-10-28T03:38:33.854Z,14.12
2022-10-28T03:41:06.498Z,14.11
2022-10-28T03:43:39.275Z,14.16
2022-10-28T03:46:12.108Z,14.21
2022-10-28T03:48:44.784Z,14.22
2022-10-28T03:51:17.724Z,14.29
2022-10-28T03:53:50.355Z,14.30
2022-10-28T03:56:22.918Z,14.37
2022-10-28T03:58:55.493Z,14.46
2022-10-28T04:01:28.057Z,14.50
2022-10-28T04:04:00.786Z,14.49
2022-10-28T04:06:33.419Z,14.57
2022-10-28T04:09:05.938Z,14.67
2022-10-28T04:11:38.490Z,14.73
2022-10-28T04:14:11.018Z,14.71
2022-10-28T04:16:43.745Z,14.74
2022-10-28T04:19:16.306Z,14.77
2022-10-28T04:21:48.931Z,14.77
2022-10-28T04:24:21.616Z,14.80
2022-10-28T04:26:54.263Z,14.81
2022-10-28T04:29:27.035Z,14.81
2022-10-28T04:31:59.606Z,14.76
2022-10-28T04:34:32.166Z,14.71
2022-10-28T04:37:04.896Z,14.67
2022-10-28T04:39:37.478Z,14.64
2022-10-28T04:42:10.031Z,14.59
2022-10-28T04:44:42.572Z,14.51
2022-10-28T04:47:15.334Z,14.46
2022-10-28T04:49:47.979Z,14.38
2022-10-28T04:52:20.559Z,14.36
2022-10-28T04:54:53.146Z,14.37
2022-10-28T04:57:25.689Z,14.28
2022-10-28T04:59:58.242Z,14.23
2022-10-28T05:02:30.820Z,14.16
2022-10-28T05:05:04.468Z,14.18
2022-10-28T05:07:38.351Z,14.17
2022-10-28T05:10:12.243Z,14.20
2022-10-28T05:12:47.871Z,14.23
2022-10-28T05:15:21.119Z,14.23
2022-10-28T05:17:54.296Z,14.33
2022-10-28T05:20:27.218Z,14.37
2022-10-28T05:22:59.859Z,14.38
2022-10-28T05:25:32.369Z,14.43
2022-10-28T05:28:05.316Z,14.37
2022-10-28T05:30:37.940Z,14.39
2022-10-28T05:33:11.330Z,14.32
2022-10-28T05:35:43.853Z,14.34
2022-10-28T05:38:16.706Z,14.33
2022-10-28T05:40:49.261Z,14.30
2022-10-28T05:43:21.786Z,14.26
2022-10-28T05:45:56.402Z,14.19
2022-10-28T05:48:29.010Z,14.16
2022-10-28T05:51:01.514Z,14.17
2022-10-28T05:53:34.081Z,14.15
2022-10-28T05:56:06.942Z,14.12
2022-10-28T05:58:39.498Z,14.04
2022-10-28T06:01:12.110Z,14.02
2022-10-28T06:03:44.707Z,13.99
2022-10-28T06:06:17.207Z,13.89
2022-10-28T06:08:49.698Z,13.87
2022-10-28T06:11:20.631Z,13.85
2022-10-28T06:13:53.156Z,13.89
2022-10-28T06:16:25.684Z,13.90
2022-10-28T06:18:58.326Z,13.94
2022-10-28T06:21:30.846Z,13.97
2022-10-28T06:24:03.702Z,13.97
2022-10-28T06:26:36.224Z,14.02
2022-10-28T06:29:09.547Z,14.03
2022-10-28T06:31:42.185Z,14.05
2022-10-28T06:34:14.667Z,14.05
2022-10-28T06:36:47.318Z,14.04
2022-10-28T06:39:19.863Z,14.04
2022-10-28T06:41:52.387Z,14.05
2022-10-28T06:44:24.841Z,14.01
2022-10-28T06:46:58.826Z,14.04
2022-10-28T06:49:31.298Z,14.03
2022-10-28T06:52:04.061Z,14.03
2022-10-28T06:54:36.581Z,14.11
2022-10-28T06:57:10.493Z,14.20
2022-10-28T06:59:42.982Z,14.22
2022-10-28T07:02:15.992Z,14.28
2022-10-28T07:04:48.624Z,14.33
2022-10-28T07:07:21.296Z,14.36
2022-10-28T07:09:53.765Z,14.40
2022-10-28T07:12:27.904Z,14.49
2022-10-28T07:15:00.433Z,14.54
2022-10-28T07:17:32.995Z,14.71
2022-10-28T07:20:06.201Z,14.83
2022-10-28T07:22:38.712Z,14.94
2022-10-28T07:25:11.216Z,15.05
2022-10-28T07:27:43.738Z,15.21
2022-10-28T07:30:16.349Z,15.32
2022-10-28T07:32:48.888Z,15.47
2022-10-28T07:35:21.787Z,15.53
2022-10-28T07:37:54.352Z,15.67
2022-10-28T07:40:27.158Z,15.76
2022-10-28T07:42:59.682Z,15.92
2022-10-28T07:45:32.211Z,15.95
2022-10-28T07:48:06.160Z,16.10
2022-10-28T07:50:41.660Z,16.16
2022-10-28T07:56:01.201Z,16.52
2022-10-28T07:58:33.685Z,16.63
2022-10-28T08:01:09.464Z,16.81
2022-10-28T08:03:42.393Z,16.93
2022-10-28T08:06:19.865Z,17.00
2022-10-28T08:08:57.449Z,17.17
2022-10-28T08:11:30.027Z,17.24
2022-10-28T08:14:03.187Z,17.33
2022-10-28T08:16:35.683Z,17.37
2022-10-28T08:19:08.201Z,17.56
2022-10-28T08:21:40.721Z,17.48
2022-10-28T08:24:13.222Z,17.68
2022-10-28T08:26:45.698Z,17.59
2022-10-28T08:29:18.228Z,17.61
2022-10-28T08:31:50.719Z,17.63
2022-10-28T08:34:23.348Z,17.61
2022-10-28T08:36:56.714Z,17.63
2022-10-28T08:39:29.278Z,17.69
2022-10-28T08:42:33.309Z,17.67
2022-10-28T08:45:46.725Z,17.67
2022-10-28T08:48:31.695Z,17.85
2022-10-28T08:51:14.487Z,17.91
2022-10-28T08:54:04.464Z,18.10
2022-10-28T08:56:46.070Z,18.39
2022-10-28T08:59:24.133Z,18.54
2022-10-28T09:02:05.070Z,18.72
2022-10-28T09:04:45.399Z,18.78
2022-10-28T09:07:22.091Z,18.94
2022-10-28T09:09:55.961Z,18.99
2022-10-28T09:12:43.278Z,19.17
2022-10-28T09:15:21.725Z,19.27
2022-10-28T09:18:05.292Z,19.43
2022-10-28T09:21:02.213Z,19.64
2022-10-28T09:23:55.643Z,19.81
2022-10-28T09:26:56.032Z,19.79
2022-10-28T09:29:53.858Z,19.93
2022-10-28T09:32:57.444Z,20.06
2022-10-28T09:35:37.925Z,20.14
2022-10-28T09:38:26.995Z,20.19
2022-10-28T09:41:14.144Z,19.99
2022-10-28T09:44:24.186Z,20.02
2022-10-28T09:47:03.293Z,19.97
2022-10-28T09:49:38.101Z,19.94
2022-10-28T09:52:24.975Z,20.06
2022-10-28T09:55:04.176Z,20.09
2022-10-28T09:57:36.705Z,20.23
2022-10-28T10:00:13.782Z,20.08
2022-10-28T10:02:46.488Z,20.20
2022-10-28T10:05:19.177Z,20.34
2022-10-28T10:08:01.596Z,20.43
2022-10-28T10:10:52.380Z,20.47
2022-10-28T10:13:33.864Z,20.53
2022-10-28T10:16:33.408Z,20.55
2022-10-28T10:19:11.107Z,20.73
2022-10-28T10:21:53.009Z,20.85
2022-10-28T10:24:36.039Z,20.69
2022-10-28T10:27:11.432Z,20.89
2022-10-28T10:29:52.976Z,20.92
2022-10-28T10:32:32.682Z,21.15
2022-10-28T10:35:20.444Z,21.26
2022-10-28T10:37:57.483Z,21.35
2022-10-28T10:40:51.855Z,21.32
2022-10-28T10:43:31.459Z,21.50
2022-10-28T10:46:17.930Z,21.56
2022-10-28T10:49:12.903Z,21.73
2022-10-28T10:51:54.608Z,21.63
2022-10-28T10:54:32.664Z,21.79
2022-10-28T10:57:20.784Z,21.83
2022-10-28T10:59:56.492Z,21.89
2022-10-28T11:02:39.418Z,21.93
2022-10-28T11:05:12.365Z,21.87
2022-10-28T11:07:49.126Z,21.98
2022-10-28T11:10:26.928Z,22.13
2022-10-28T11:13:24.349Z,22.09
2022-10-28T11:16:06.742Z,22.27
2022-10-28T11:18:46.718Z,22.26
2022-10-28T11:21:48.554Z,22.20
2022-10-28T11:24:42.477Z,22.41
2022-10-28T11:27:55.300Z,22.35
2022-10-28T11:30:53.983Z,22.58
2022-10-28T11:34:09.571Z,22.53
2022-10-28T11:37:09.398Z,22.60
2022-10-28T11:39:59.262Z,22.36
2022-10-28T11:43:11.744Z,22.39
2022-10-28T11:46:05.092Z,22.54
2022-10-28T11:49:10.110Z,22.87
2022-10-28T11:51:59.569Z,22.72
2022-10-28T11:55:09.035Z,22.73
2022-10-28T11:58:03.039Z,22.51
2022-10-28T12:01:16.092Z,22.58
2022-10-28T12:04:17.548Z,22.58
2022-10-28T12:07:42.931Z,22.42
2022-10-28T12:10:54.020Z,22.72
2022-10-28T12:14:36.417Z,22.56
2022-10-28T12:17:35.567Z,22.79
2022-10-28T12:20:29.523Z,22.55
2022-10-28T12:23:13.008Z,22.55
2022-10-28T12:25:57.273Z,22.65
2022-10-28T12:29:00.702Z,22.52
2022-10-28T12:31:45.085Z,22.63
2022-10-28T12:34:29.831Z,22.67
2022-10-28T12:37:13.832Z,22.56
2022-10-28T12:40:01.549Z,22.53
2022-10-28T12:42:43.804Z,22.54
2022-10-28T12:45:21.260Z,22.50
2022-10-28T12:48:13.620Z,22.38
2022-10-28T12:50:54.099Z,22.27
2022-10-28T12:53:48.357Z,22.25
2022-10-28T12:56:37.395Z,22.29
2022-10-28T12:59:23.436Z,22.23
2022-10-28T13:02:01.140Z,22.25
2022-10-28T13:04:33.926Z,22.34
2022-10-28T13:07:37.124Z,22.40
2022-10-28T13:10:41.447Z,22.18
2022-10-28T13:13:38.160Z,22.01
2022-10-28T13:16:43.198Z,22.01
2022-10-28T13:19:37.118Z,21.91
2022-10-28T13:22:53.118Z,21.87
2022-10-28T13:25:44.437Z,21.90
2022-10-28T13:28:21.568Z,21.56
2022-10-28T13:31:03.736Z,21.78
2022-10-28T13:33:39.217Z,21.83
2022-10-28T13:36:30.390Z,21.95
2022-10-28T13:39:07.692Z,21.94
2022-10-28T13:41:44.759Z,22.03
2022-10-28T13:44:20.314Z,22.07
2022-10-28T13:46:59.440Z,22.20
2022-10-28T13:49:34.690Z,21.83
2022-10-28T13:52:07.072Z,22.09
2022-10-28T13:54:39.428Z,22.07
2022-10-28T13:57:39.739Z,22.13
2022-10-28T14:00:18.322Z,22.04
2022-10-28T14:02:59.662Z,22.06
2022-10-28T14:05:32.304Z,22.02
2022-10-28T14:08:28.756Z,22.06
2022-10-28T14:11:11.857Z,22.01
2022-10-28T14:13:48.873Z,22.18
2022-10-28T14:16:33.185Z,22.18
2022-10-28T14:19:11.476Z,22.25
2022-10-28T14:22:06.075Z,22.35
2022-10-28T14:24:44.658Z,22.32
2022-10-28T14:27:28.834Z,22.23
2022-10-28T14:30:01.197Z,22.13
2022-10-28T14:32:33.668Z,22.09
2022-10-28T14:35:23.987Z,22.09
2022-10-28T14:38:59.953Z,21.95
2022-10-28T14:42:16.476Z,21.85
2022-10-28T14:45:12.564Z,21.83
2022-10-28T14:48:15.899Z,21.73
2022-10-28T14:50:52.543Z,21.88
2022-10-28T14:53:35.253Z,21.75
2022-10-28T14:56:26.678Z,21.66
2022-10-28T14:59:27.187Z,21.42
2022-10-28T15:02:24.724Z,21.54
2022-10-28T15:05:12.157Z,21.50
2022-10-28T15:07:44.718Z,21.44
2022-10-28T15:10:38.241Z,21.48
2022-10-28T15:13:18.091Z,21.46
2022-10-28T15:15:59.314Z,21.32
2022-10-28T15:18:34.700Z,21.22
2022-10-28T15:21:15.887Z,21.11
2022-10-28T15:24:01.876Z,20.97
2022-10-28T15:26:34.494Z,20.83
2022-10-28T15:29:06.992Z,20.80
2022-10-28T15:32:20.751Z,20.77
2022-10-28T15:34:53.688Z,20.58
2022-10-28T15:37:34.698Z,20.50
2022-10-28T15:40:29.601Z,20.48
2022-10-28T15:43:05.681Z,20.50
2022-10-28T15:45:42.355Z,20.41
2022-10-28T15:48:27.428Z,20.48
2022-10-28T15:51:18.972Z,20.36
2022-10-28T15:53:56.635Z,20.33
2022-10-28T15:56:30.121Z,20.36
2022-10-28T15:59:17.704Z,20.32
2022-10-28T16:01:50.604Z,20.23
2022-10-28T16:04:23.076Z,20.06
2022-10-28T16:07:08.761Z,20.07
2022-10-28T16:09:48.640Z,20.13
2022-10-28T16:12:26.400Z,19.91
2022-10-28T16:15:02.527Z,19.88
2022-10-28T16:17:36.687Z,19.71
2022-10-28T16:20:18.326Z,19.68
2022-10-28T16:22:52.403Z,19.59
2022-10-28T16:25:24.877Z,19.47
2022-10-28T16:27:57.522Z,19.37
2022-10-28T16:30:30.268Z,19.15
2022-10-28T16:33:02.892Z,19.08
2022-10-28T16:35:35.373Z,19.01
2022-10-28T16:38:14.641Z,18.86
2022-10-28T16:40:51.750Z,18.80
2022-10-28T16:43:27.368Z,18.69
2022-10-28T16:46:00.768Z,18.63
2022-10-28T16:48:33.308Z,18.52
2022-10-28T16:51:17.598Z,18.47
2022-10-28T16:53:50.824Z,18.39
2022-10-28T16:56:23.452Z,18.34
2022-10-28T16:58:55.975Z,18.24
2022-10-28T17:01:28.676Z,18.17
2022-10-28T17:04:01.276Z,18.06
2022-10-28T17:06:33.843Z,17.92
2022-10-28T17:09:06.489Z,17.87
2022-10-28T17:11:38.967Z,17.77
2022-10-28T17:14:11.502Z,17.72
2022-10-28T17:16:43.972Z,17.61
2022-10-28T17:19:16.606Z,17.55
2022-10-28T17:21:49.104Z,17.44
2022-10-28T17:24:22.220Z,17.41
2022-10-28T17:26:54.737Z,17.36
2022-10-28T17:29:28.048Z,17.32
2022-10-28T17:32:00.653Z,17.28
2022-10-28T17:34:33.193Z,17.27
2022-10-28T17:37:06.061Z,17.23
2022-10-28T17:39:38.527Z,17.18
2022-10-28T17:42:11.081Z,17.11
2022-10-28T17:44:43.619Z,17.09
2022-10-28T17:47:16.194Z,17.05
2022-10-28T17:49:48.725Z,17.04
2022-10-28T17:52:21.206Z,17.02
2022-10-28T17:54:53.749Z,16.99
2022-10-28T17:57:26.242Z,17.05
2022-10-28T17:59:58.821Z,17.14
2022-10-28T18:02:31.532Z,17.15
2022-10-28T18:05:04.336Z,17.24
2022-10-28T18:07:36.894Z,17.23
2022-10-28T18:10:09.854Z,17.26
2022-10-28T18:12:42.465Z,17.20
2022-10-28T18:15:15.074Z,17.20
2022-10-28T18:17:50.732Z,17.16
2022-10-28T18:20:23.240Z,17.09
2022-10-28T18:22:56.196Z,17.00
2022-10-28T18:25:29.061Z,16.93
2022-10-28T18:28:04.821Z,16.88
2022-10-28T18:30:37.385Z,16.78
2022-10-28T18:33:09.954Z,16.72
2022-10-28T18:35:42.475Z,16.70
2022-10-28T18:38:14.947Z,16.70
2022-10-28T18:40:47.807Z,16.69
2022-10-28T18:43:21.653Z,16.63
2022-10-28T18:45:54.692Z,16.57
2022-10-28T18:48:27.223Z,16.56
2022-10-28T18:51:06.597Z,16.44
2022-10-28T18:53:43.547Z,16.42
2022-10-28T18:56:23.840Z,16.40
2022-10-28T18:58:58.406Z,16.36
2022-10-28T19:01:32.505Z,16.28
2022-10-28T19:04:05.369Z,16.24
2022-10-28T19:06:40.159Z,16.20
2022-10-28T19:09:13.386Z,16.14
2022-10-28T19:11:46.220Z,16.09
2022-10-28T19:14:18.747Z,16.05
2022-10-28T19:16:51.322Z,15.96
2022-10-28T19:19:23.913Z,15.98
2022-10-28T19:21:56.904Z,16.02
2022-10-28T19:24:29.425Z,16.07
2022-10-28T19:27:02.034Z,16.13
2022-10-28T19:29:34.660Z,16.18
2022-10-28T19:32:07.277Z,16.20
2022-10-28T19:34:39.806Z,16.20
2022-10-28T19:37:12.309Z,16.18
2022-10-28T19:39:44.805Z,16.16
2022-10-28T19:42:17.342Z,16.15
2022-10-28T19:44:49.837Z,16.14
2022-10-28T19:47:22.391Z,16.13
2022-10-28T19:49:55.046Z,16.03
2022-10-28T19:52:27.539Z,16.01
2022-10-28T19:55:00.148Z,15.95
2022-10-28T19:57:32.668Z,15.85
2022-10-28T20:00:06.432Z,15.75
2022-10-28T20:02:39.047Z,15.64
2022-10-28T20:05:11.727Z,15.75
2022-10-28T20:07:44.657Z,15.81
2022-10-28T20:10:17.289Z,15.77
2022-10-28T20:12:49.809Z,15.77
2022-10-28T20:15:22.309Z,15.75
2022-10-28T20:17:54.856Z,15.73
2022-10-28T20:20:27.393Z,15.73
2022-10-28T20:23:00.089Z,15.72
2022-10-28T20:25:32.852Z,15.71
2022-10-28T20:28:05.352Z,15.69
2022-10-28T20:30:37.854Z,15.69
2022-10-28T20:33:10.419Z,15.69
2022-10-28T20:35:42.920Z,15.67
2022-10-28T20:38:15.373Z,15.52
2022-10-28T20:40:50.758Z,15.60
2022-10-28T20:43:26.435Z,15.77
2022-10-28T20:46:02.482Z,15.84
2022-10-28T20:48:35.116Z,15.84
2022-10-28T20:51:09.821Z,15.73
2022-10-28T20:53:43.017Z,15.72
2022-10-28T20:56:38.825Z,15.71
2022-10-28T20:59:11.296Z,15.73
2022-10-28T21:01:44.172Z,15.77
2022-10-28T21:04:16.955Z,15.80
2022-10-28T21:06:49.660Z,15.75
2022-10-28T21:09:22.542Z,15.73
2022-10-28T21:11:55.123Z,15.68
2022-10-28T21:14:27.613Z,15.62
2022-10-28T21:17:01.600Z,15.56
2022-10-28T21:19:34.089Z,15.52
2022-10-28T21:22:06.740Z,15.46
2022-10-28T21:24:39.220Z,15.40
2022-10-28T21:27:11.820Z,15.27
2022-10-28T21:29:44.355Z,15.23
2022-10-28T21:32:16.905Z,15.17
2022-10-28T21:34:49.383Z,15.08
2022-10-28T21:37:21.959Z,14.97
2022-10-28T21:39:57.278Z,14.91
2022-10-28T21:42:33.336Z,14.78
2022-10-28T21:45:07.674Z,14.73
2022-10-28T21:47:40.224Z,14.66
2022-10-28T21:50:13.235Z,14.57
2022-10-28T21:52:45.764Z,14.51
2022-10-28T21:55:20.936Z,14.44
2022-10-28T21:58:06.287Z,14.41
2022-10-28T22:00:39.318Z,14.37
2022-10-28T22:03:13.538Z,14.31
2022-10-28T22:05:50.615Z,14.31
2022-10-28T22:08:23.217Z,14.29
2022-10-28T22:11:06.046Z,14.27
2022-10-28T22:13:38.533Z,14.25
2022-10-28T22:16:16.827Z,14.24
2022-10-28T22:18:49.427Z,14.23
2022-10-28T22:21:25.459Z,14.22
2022-10-28T22:23:58.037Z,14.22
2022-10-28T22:26:32.931Z,14.17
2022-10-28T22:29:05.520Z,14.22
2022-10-28T22:31:38.114Z,14.24
2022-10-28T22:34:10.624Z,14.25
2022-10-28T22:36:44.833Z,14.23
2022-10-28T22:39:17.390Z,14.23
2022-10-28T22:41:49.825Z,14.33
2022-10-28T22:44:22.422Z,14.36
2022-10-28T22:46:54.936Z,14.38
2022-10-28T22:49:27.481Z,14.39
2022-10-28T22:52:00.058Z,14.44
2022-10-28T22:54:32.583Z,14.49
2022-10-28T22:57:05.046Z,14.50
2022-10-28T22:59:37.529Z,14.52
2022-10-28T23:02:10.229Z,14.56
2022-10-28T23:04:42.845Z,14.56
2022-10-28T23:07:15.308Z,14.61
2022-10-28T23:09:47.785Z,14.61
2022-10-28T23:12:20.317Z,14.53
2022-10-28T23:14:52.824Z,14.54
2022-10-28T23:17:25.274Z,14.57
2022-10-28T23:19:57.813Z,14.50
2022-10-28T23:22:30.497Z,14.51
2022-10-28T23:25:03.010Z,14.52
2022-10-28T23:27:35.509Z,14.52
2022-10-28T23:30:12.031Z,14.48
2022-10-28T23:32:44.528Z,14.52
2022-10-28T23:35:17.246Z,14.52
2022-10-28T23:37:49.775Z,14.58
2022-10-28T23:40:22.236Z,14.61
2022-10-28T23:42:54.947Z,14.64
2022-10-28T23:45:27.694Z,14.68
2022-10-28T23:48:00.296Z,14.69
2022-10-28T23:50:32.790Z,14.71
2022-10-28T23:53:05.265Z,14.71
2022-10-28T23:55:37.993Z,14.68
2022-10-28T23:58:15.479Z,14.67
